sensor_id;sensor_type;location;lat;lon;timestamp;temperature;humidity
19110;DHT22;9687;50.836;12.060;2023-03-23T00:01:33;16.70;60.80
19110;DHT22;9687;50.836;12.060;2023-03-23T00:04:04;16.50;60.60
19110;DHT22;9687;50.836;12.060;2023-03-23T00:06:31;16.50;60.50
19110;DHT22;9687;50.836;12.060;2023-03-23T00:09:00;16.50;60.60
19110;DHT22;9687;50.836;12.060;2023-03-23T00:11:30;16.50;60.60
19110;DHT22;9687;50.836;12.060;2023-03-23T00:14:00;16.50;60.00
19110;DHT22;9687;50.836;12.060;2023-03-23T00:16:31;16.50;59.80
19110;DHT22;9687;50.836;12.060;2023-03-23T00:18:59;16.50;60.50
19110;DHT22;9687;50.836;12.060;2023-03-23T00:21:28;16.50;60.40
19110;DHT22;9687;50.836;12.060;2023-03-23T00:24:01;16.50;60.30
19110;DHT22;9687;50.836;12.060;2023-03-23T00:26:29;16.50;60.40
19110;DHT22;9687;50.836;12.060;2023-03-23T00:29:02;16.50;60.40
19110;DHT22;9687;50.836;12.060;2023-03-23T00:31:30;16.40;59.80
19110;DHT22;9687;50.836;12.060;2023-03-23T00:33:58;16.40;60.30
19110;DHT22;9687;50.836;12.060;2023-03-23T00:36:30;16.40;60.40
19110;DHT22;9687;50.836;12.060;2023-03-23T00:38:58;16.40;60.40
19110;DHT22;9687;50.836;12.060;2023-03-23T00:41:27;16.30;60.30
19110;DHT22;9687;50.836;12.060;2023-03-23T00:43:55;16.30;60.30
19110;DHT22;9687;50.836;12.060;2023-03-23T00:46:25;16.30;60.40
19110;DHT22;9687;50.836;12.060;2023-03-23T00:48:52;16.30;60.30
19110;DHT22;9687;50.836;12.060;2023-03-23T00:51:21;16.40;60.50
19110;DHT22;9687;50.836;12.060;2023-03-23T00:53:48;16.40;60.50
19110;DHT22;9687;50.836;12.060;2023-03-23T00:56:16;16.40;60.40
19110;DHT22;9687;50.836;12.060;2023-03-23T00:58:43;16.40;60.40
19110;DHT22;9687;50.836;12.060;2023-03-23T01:01:11;16.40;60.40
19110;DHT22;9687;50.836;12.060;2023-03-23T01:03:41;16.30;60.30
19110;DHT22;9687;50.836;12.060;2023-03-23T01:06:15;16.30;60.50
19110;DHT22;9687;50.836;12.060;2023-03-23T01:08:44;16.40;60.70
19110;DHT22;9687;50.836;12.060;2023-03-23T01:11:15;16.40;60.60
19110;DHT22;9687;50.836;12.060;2023-03-23T01:13:51;16.40;60.70
19110;DHT22;9687;50.836;12.060;2023-03-23T01:16:19;16.40;60.60
19110;DHT22;9687;50.836;12.060;2023-03-23T01:18:52;16.40;60.60
19110;DHT22;9687;50.836;12.060;2023-03-23T01:21:19;16.40;60.60
19110;DHT22;9687;50.836;12.060;2023-03-23T01:23:48;16.40;60.60
19110;DHT22;9687;50.836;12.060;2023-03-23T01:26:23;16.40;59.80
19110;DHT22;9687;50.836;12.060;2023-03-23T01:28:56;16.40;60.50
19110;DHT22;9687;50.836;12.060;2023-03-23T01:31:24;16.40;60.40
19110;DHT22;9687;50.836;12.060;2023-03-23T01:34:06;16.40;60.40
19110;DHT22;9687;50.836;12.060;2023-03-23T01:36:34;16.40;60.40
19110;DHT22;9687;50.836;12.060;2023-03-23T01:39:07;16.40;60.50
19110;DHT22;9687;50.836;12.060;2023-03-23T01:41:38;16.40;60.40
19110;DHT22;9687;50.836;12.060;2023-03-23T01:47:11;16.40;60.60
19110;DHT22;9687;50.836;12.060;2023-03-23T01:49:41;16.30;60.60
19110;DHT22;9687;50.836;12.060;2023-03-23T01:52:13;16.30;60.60
19110;DHT22;9687;50.836;12.060;2023-03-23T01:54:44;16.30;60.70
19110;DHT22;9687;50.836;12.060;2023-03-23T01:57:15;16.30;61.00
19110;DHT22;9687;50.836;12.060;2023-03-23T01:59:45;16.30;61.00
19110;DHT22;9687;50.836;12.060;2023-03-23T02:02:16;16.20;61.10
19110;DHT22;9687;50.836;12.060;2023-03-23T02:04:46;16.20;61.30
19110;DHT22;9687;50.836;12.060;2023-03-23T02:07:20;16.10;61.30
19110;DHT22;9687;50.836;12.060;2023-03-23T02:09:50;16.10;61.40
19110;DHT22;9687;50.836;12.060;2023-03-23T02:12:24;16.10;61.50
19110;DHT22;9687;50.836;12.060;2023-03-23T02:15:01;16.10;61.50
19110;DHT22;9687;50.836;12.060;2023-03-23T02:17:41;16.00;61.50
19110;DHT22;9687;50.836;12.060;2023-03-23T02:20:36;16.00;60.80
19110;DHT22;9687;50.836;12.060;2023-03-23T02:23:39;16.00;61.50
19110;DHT22;9687;50.836;12.060;2023-03-23T02:26:37;16.10;61.60
19110;DHT22;9687;50.836;12.060;2023-03-23T02:29:39;16.10;60.90
19110;DHT22;9687;50.836;12.060;2023-03-23T02:32:42;16.10;61.50
19110;DHT22;9687;50.836;12.060;2023-03-23T02:35:34;16.10;61.60
19110;DHT22;9687;50.836;12.060;2023-03-23T02:38:13;16.10;61.60
19110;DHT22;9687;50.836;12.060;2023-03-23T02:40:52;16.10;61.70
19110;DHT22;9687;50.836;12.060;2023-03-23T02:43:42;16.10;61.80
19110;DHT22;9687;50.836;12.060;2023-03-23T02:46:29;16.10;61.80
19110;DHT22;9687;50.836;12.060;2023-03-23T02:49:00;16.10;61.90
19110;DHT22;9687;50.836;12.060;2023-03-23T02:51:32;16.10;62.00
19110;DHT22;9687;50.836;12.060;2023-03-23T02:54:03;16.10;62.20
19110;DHT22;9687;50.836;12.060;2023-03-23T02:56:33;16.10;62.20
19110;DHT22;9687;50.836;12.060;2023-03-23T02:59:03;16.00;62.20
19110;DHT22;9687;50.836;12.060;2023-03-23T03:04:19;16.10;62.40
19110;DHT22;9687;50.836;12.060;2023-03-23T03:06:50;16.00;62.60
19110;DHT22;9687;50.836;12.060;2023-03-23T03:09:23;16.00;62.70
19110;DHT22;9687;50.836;12.060;2023-03-23T03:11:54;16.00;62.90
19110;DHT22;9687;50.836;12.060;2023-03-23T03:14:23;16.00;63.10
19110;DHT22;9687;50.836;12.060;2023-03-23T03:16:53;15.90;63.10
19110;DHT22;9687;50.836;12.060;2023-03-23T03:19:25;15.90;63.20
19110;DHT22;9687;50.836;12.060;2023-03-23T03:21:55;15.90;63.30
19110;DHT22;9687;50.836;12.060;2023-03-23T03:24:26;16.00;63.50
19110;DHT22;9687;50.836;12.060;2023-03-23T03:26:54;15.90;63.50
19110;DHT22;9687;50.836;12.060;2023-03-23T03:29:25;16.00;63.70
19110;DHT22;9687;50.836;12.060;2023-03-23T03:31:53;15.90;63.60
19110;DHT22;9687;50.836;12.060;2023-03-23T03:34:22;15.90;63.70
19110;DHT22;9687;50.836;12.060;2023-03-23T03:36:50;15.90;63.70
19110;DHT22;9687;50.836;12.060;2023-03-23T03:39:20;15.90;63.80
19110;DHT22;9687;50.836;12.060;2023-03-23T03:41:48;15.90;63.70
19110;DHT22;9687;50.836;12.060;2023-03-23T03:44:15;16.00;63.80
19110;DHT22;9687;50.836;12.060;2023-03-23T03:46:43;16.00;63.80
19110;DHT22;9687;50.836;12.060;2023-03-23T03:49:10;16.00;63.80
19110;DHT22;9687;50.836;12.060;2023-03-23T03:51:38;16.00;63.80
19110;DHT22;9687;50.836;12.060;2023-03-23T03:54:06;16.00;63.80
19110;DHT22;9687;50.836;12.060;2023-03-23T03:56:35;16.00;63.80
19110;DHT22;9687;50.836;12.060;2023-03-23T03:59:06;16.00;63.90
19110;DHT22;9687;50.836;12.060;2023-03-23T04:01:34;16.00;63.80
19110;DHT22;9687;50.836;12.060;2023-03-23T04:04:01;16.00;63.80
19110;DHT22;9687;50.836;12.060;2023-03-23T04:06:28;16.00;63.80
19110;DHT22;9687;50.836;12.060;2023-03-23T04:08:55;16.00;63.80
19110;DHT22;9687;50.836;12.060;2023-03-23T04:11:25;16.00;63.70
19110;DHT22;9687;50.836;12.060;2023-03-23T04:13:53;15.90;63.60
19110;DHT22;9687;50.836;12.060;2023-03-23T04:16:21;16.00;63.70
19110;DHT22;9687;50.836;12.060;2023-03-23T04:18:48;16.00;63.70
19110;DHT22;9687;50.836;12.060;2023-03-23T04:21:16;15.90;63.50
19110;DHT22;9687;50.836;12.060;2023-03-23T04:23:43;15.90;63.50
19110;DHT22;9687;50.836;12.060;2023-03-23T04:26:11;16.00;63.60
19110;DHT22;9687;50.836;12.060;2023-03-23T04:28:39;15.90;63.40
19110;DHT22;9687;50.836;12.060;2023-03-23T04:31:08;16.00;63.50
19110;DHT22;9687;50.836;12.060;2023-03-23T04:33:38;16.00;63.50
19110;DHT22;9687;50.836;12.060;2023-03-23T04:36:07;15.90;63.40
19110;DHT22;9687;50.836;12.060;2023-03-23T04:38:34;15.90;63.40
19110;DHT22;9687;50.836;12.060;2023-03-23T04:41:02;15.90;63.50
19110;DHT22;9687;50.836;12.060;2023-03-23T04:43:29;15.90;63.50
19110;DHT22;9687;50.836;12.060;2023-03-23T04:45:58;15.90;63.40
19110;DHT22;9687;50.836;12.060;2023-03-23T04:48:29;15.90;63.50
19110;DHT22;9687;50.836;12.060;2023-03-23T04:51:00;15.80;63.50
19110;DHT22;9687;50.836;12.060;2023-03-23T04:53:28;15.80;63.50
19110;DHT22;9687;50.836;12.060;2023-03-23T04:55:56;15.80;63.70
19110;DHT22;9687;50.836;12.060;2023-03-23T04:58:24;15.80;63.60
19110;DHT22;9687;50.836;12.060;2023-03-23T05:00:51;15.80;63.70
19110;DHT22;9687;50.836;12.060;2023-03-23T05:03:19;15.80;63.70
19110;DHT22;9687;50.836;12.060;2023-03-23T05:05:47;15.80;63.80
19110;DHT22;9687;50.836;12.060;2023-03-23T05:08:18;15.90;63.90
19110;DHT22;9687;50.836;12.060;2023-03-23T05:10:49;15.90;63.90
19110;DHT22;9687;50.836;12.060;2023-03-23T05:13:17;15.70;63.70
19110;DHT22;9687;50.836;12.060;2023-03-23T05:15:44;15.90;63.20
19110;DHT22;9687;50.836;12.060;2023-03-23T05:18:11;15.90;64.00
19110;DHT22;9687;50.836;12.060;2023-03-23T05:20:38;15.90;63.90
19110;DHT22;9687;50.836;12.060;2023-03-23T05:23:09;15.90;63.30
19110;DHT22;9687;50.836;12.060;2023-03-23T05:25:37;15.90;64.00
19110;DHT22;9687;50.836;12.060;2023-03-23T05:28:06;15.90;63.90
19110;DHT22;9687;50.836;12.060;2023-03-23T05:30:34;15.90;63.90
19110;DHT22;9687;50.836;12.060;2023-03-23T05:33:01;15.90;64.00
19110;DHT22;9687;50.836;12.060;2023-03-23T05:35:28;15.90;64.00
19110;DHT22;9687;50.836;12.060;2023-03-23T05:37:57;15.80;63.90
19110;DHT22;9687;50.836;12.060;2023-03-23T05:40:25;16.00;64.10
19110;DHT22;9687;50.836;12.060;2023-03-23T05:42:53;16.00;64.10
19110;DHT22;9687;50.836;12.060;2023-03-23T05:45:22;16.00;64.10
19110;DHT22;9687;50.836;12.060;2023-03-23T05:47:49;16.00;64.10
19110;DHT22;9687;50.836;12.060;2023-03-23T05:50:17;16.00;64.10
19110;DHT22;9687;50.836;12.060;2023-03-23T05:52:44;16.00;64.10
19110;DHT22;9687;50.836;12.060;2023-03-23T05:55:12;16.00;64.10
19110;DHT22;9687;50.836;12.060;2023-03-23T05:57:41;16.00;64.00
19110;DHT22;9687;50.836;12.060;2023-03-23T06:00:09;16.00;64.00
19110;DHT22;9687;50.836;12.060;2023-03-23T06:02:37;16.00;64.10
19110;DHT22;9687;50.836;12.060;2023-03-23T06:05:05;16.00;64.10
19110;DHT22;9687;50.836;12.060;2023-03-23T06:07:33;16.00;64.10
19110;DHT22;9687;50.836;12.060;2023-03-23T06:10:01;16.10;64.20
19110;DHT22;9687;50.836;12.060;2023-03-23T06:12:28;16.10;64.20
19110;DHT22;9687;50.836;12.060;2023-03-23T06:14:57;16.10;64.20
19110;DHT22;9687;50.836;12.060;2023-03-23T06:17:24;16.10;64.10
19110;DHT22;9687;50.836;12.060;2023-03-23T06:19:52;16.10;64.10
19110;DHT22;9687;50.836;12.060;2023-03-23T06:22:19;16.10;64.10
19110;DHT22;9687;50.836;12.060;2023-03-23T06:24:46;16.10;64.10
19110;DHT22;9687;50.836;12.060;2023-03-23T06:27:14;16.10;64.10
19110;DHT22;9687;50.836;12.060;2023-03-23T06:29:42;16.10;64.20
19110;DHT22;9687;50.836;12.060;2023-03-23T06:32:11;16.10;64.10
19110;DHT22;9687;50.836;12.060;2023-03-23T06:34:40;16.10;64.10
19110;DHT22;9687;50.836;12.060;2023-03-23T06:37:10;16.10;64.10
19110;DHT22;9687;50.836;12.060;2023-03-23T06:39:38;16.10;64.20
19110;DHT22;9687;50.836;12.060;2023-03-23T06:42:08;16.10;64.30
19110;DHT22;9687;50.836;12.060;2023-03-23T06:44:36;16.10;64.50
19110;DHT22;9687;50.836;12.060;2023-03-23T06:47:03;16.10;64.70
19110;DHT22;9687;50.836;12.060;2023-03-23T06:49:32;16.10;64.80
19110;DHT22;9687;50.836;12.060;2023-03-23T06:51:59;16.10;64.80
19110;DHT22;9687;50.836;12.060;2023-03-23T06:54:27;16.10;64.80
19110;DHT22;9687;50.836;12.060;2023-03-23T06:56:55;16.10;64.80
19110;DHT22;9687;50.836;12.060;2023-03-23T06:59:22;16.10;64.80
19110;DHT22;9687;50.836;12.060;2023-03-23T07:01:50;16.10;65.00
19110;DHT22;9687;50.836;12.060;2023-03-23T07:04:17;16.20;66.10
19110;DHT22;9687;50.836;12.060;2023-03-23T07:06:47;16.20;65.60
19110;DHT22;9687;50.836;12.060;2023-03-23T07:09:15;16.20;65.70
19110;DHT22;9687;50.836;12.060;2023-03-23T07:11:42;16.20;66.00
19110;DHT22;9687;50.836;12.060;2023-03-23T07:14:10;16.20;66.30
19110;DHT22;9687;50.836;12.060;2023-03-23T07:16:37;16.20;66.50
19110;DHT22;9687;50.836;12.060;2023-03-23T07:19:04;16.10;66.50
19110;DHT22;9687;50.836;12.060;2023-03-23T07:21:36;16.10;66.80
19110;DHT22;9687;50.836;12.060;2023-03-23T07:24:05;16.20;67.00
19110;DHT22;9687;50.836;12.060;2023-03-23T07:26:33;16.10;67.20
19110;DHT22;9687;50.836;12.060;2023-03-23T07:29:02;16.20;67.30
19110;DHT22;9687;50.836;12.060;2023-03-23T07:31:31;16.20;67.60
19110;DHT22;9687;50.836;12.060;2023-03-23T07:33:59;16.20;67.60
19110;DHT22;9687;50.836;12.060;2023-03-23T07:36:27;16.20;67.80
19110;DHT22;9687;50.836;12.060;2023-03-23T07:38:54;16.20;67.80
19110;DHT22;9687;50.836;12.060;2023-03-23T07:41:23;16.20;67.90
19110;DHT22;9687;50.836;12.060;2023-03-23T07:43:53;16.20;68.20
19110;DHT22;9687;50.836;12.060;2023-03-23T07:46:20;16.20;68.40
19110;DHT22;9687;50.836;12.060;2023-03-23T07:48:48;16.20;68.50
19110;DHT22;9687;50.836;12.060;2023-03-23T07:51:16;16.20;68.60
19110;DHT22;9687;50.836;12.060;2023-03-23T07:53:43;16.20;68.60
19110;DHT22;9687;50.836;12.060;2023-03-23T07:56:12;16.20;69.20
19110;DHT22;9687;50.836;12.060;2023-03-23T07:58:42;16.20;69.30
19110;DHT22;9687;50.836;12.060;2023-03-23T08:01:10;16.10;69.40
19110;DHT22;9687;50.836;12.060;2023-03-23T08:03:38;16.10;69.50
19110;DHT22;9687;50.836;12.060;2023-03-23T08:06:05;16.10;69.50
19110;DHT22;9687;50.836;12.060;2023-03-23T08:08:32;16.10;69.90
19110;DHT22;9687;50.836;12.060;2023-03-23T08:11:00;16.10;69.90
19110;DHT22;9687;50.836;12.060;2023-03-23T08:13:27;16.00;69.90
19110;DHT22;9687;50.836;12.060;2023-03-23T08:15:56;16.00;69.90
19110;DHT22;9687;50.836;12.060;2023-03-23T08:18:24;16.00;69.80
19110;DHT22;9687;50.836;12.060;2023-03-23T08:20:52;16.00;69.80
19110;DHT22;9687;50.836;12.060;2023-03-23T08:23:19;16.00;70.30
19110;DHT22;9687;50.836;12.060;2023-03-23T08:25:47;16.10;70.20
19110;DHT22;9687;50.836;12.060;2023-03-23T08:28:15;16.10;70.30
19110;DHT22;9687;50.836;12.060;2023-03-23T08:30:43;16.00;70.40
19110;DHT22;9687;50.836;12.060;2023-03-23T08:33:12;16.10;70.60
19110;DHT22;9687;50.836;12.060;2023-03-23T08:35:40;16.10;70.60
19110;DHT22;9687;50.836;12.060;2023-03-23T08:38:09;16.00;70.50
19110;DHT22;9687;50.836;12.060;2023-03-23T08:40:37;16.10;70.60
19110;DHT22;9687;50.836;12.060;2023-03-23T08:43:05;16.10;70.90
19110;DHT22;9687;50.836;12.060;2023-03-23T08:45:33;16.10;71.30
19110;DHT22;9687;50.836;12.060;2023-03-23T08:48:00;16.10;71.20
19110;DHT22;9687;50.836;12.060;2023-03-23T08:50:29;16.10;71.30
19110;DHT22;9687;50.836;12.060;2023-03-23T08:52:57;16.10;71.40
19110;DHT22;9687;50.836;12.060;2023-03-23T08:55:25;16.10;71.50
19110;DHT22;9687;50.836;12.060;2023-03-23T08:57:53;16.20;71.70
19110;DHT22;9687;50.836;12.060;2023-03-23T09:00:22;16.20;71.80
19110;DHT22;9687;50.836;12.060;2023-03-23T09:02:53;16.20;71.70
19110;DHT22;9687;50.836;12.060;2023-03-23T09:05:36;16.30;71.70
19110;DHT22;9687;50.836;12.060;2023-03-23T09:08:09;16.30;71.80
19110;DHT22;9687;50.836;12.060;2023-03-23T09:10:38;16.40;72.00
19110;DHT22;9687;50.836;12.060;2023-03-23T09:13:06;16.40;71.80
19110;DHT22;9687;50.836;12.060;2023-03-23T09:15:35;16.40;71.90
19110;DHT22;9687;50.836;12.060;2023-03-23T09:18:03;16.40;71.80
19110;DHT22;9687;50.836;12.060;2023-03-23T09:20:32;16.40;71.80
19110;DHT22;9687;50.836;12.060;2023-03-23T09:23:05;16.50;71.80
19110;DHT22;9687;50.836;12.060;2023-03-23T09:25:33;16.60;71.90
19110;DHT22;9687;50.836;12.060;2023-03-23T09:28:02;16.60;71.80
19110;DHT22;9687;50.836;12.060;2023-03-23T09:30:31;16.70;71.70
19110;DHT22;9687;50.836;12.060;2023-03-23T09:32:59;16.80;71.70
19110;DHT22;9687;50.836;12.060;2023-03-23T09:35:28;16.90;71.40
19110;DHT22;9687;50.836;12.060;2023-03-23T09:37:57;17.10;71.70
19110;DHT22;9687;50.836;12.060;2023-03-23T09:40:30;17.20;71.30
19110;DHT22;9687;50.836;12.060;2023-03-23T09:43:06;17.30;70.90
19110;DHT22;9687;50.836;12.060;2023-03-23T09:45:37;17.50;70.80
19110;DHT22;9687;50.836;12.060;2023-03-23T09:48:12;17.40;70.70
19110;DHT22;9687;50.836;12.060;2023-03-23T09:50:43;17.40;70.80
19110;DHT22;9687;50.836;12.060;2023-03-23T09:53:13;17.50;70.80
19110;DHT22;9687;50.836;12.060;2023-03-23T09:55:43;17.60;70.90
19110;DHT22;9687;50.836;12.060;2023-03-23T10:01:42;17.70;70.40
19110;DHT22;9687;50.836;12.060;2023-03-23T10:04:12;17.70;70.40
19110;DHT22;9687;50.836;12.060;2023-03-23T10:06:43;17.70;70.30
19110;DHT22;9687;50.836;12.060;2023-03-23T10:09:15;17.70;70.30
19110;DHT22;9687;50.836;12.060;2023-03-23T10:11:47;17.70;70.20
19110;DHT22;9687;50.836;12.060;2023-03-23T10:14:23;17.80;70.20
19110;DHT22;9687;50.836;12.060;2023-03-23T10:16:56;17.90;69.90
19110;DHT22;9687;50.836;12.060;2023-03-23T10:19:29;17.90;69.70
19110;DHT22;9687;50.836;12.060;2023-03-23T10:21:59;18.00;69.50
19110;DHT22;9687;50.836;12.060;2023-03-23T10:24:30;18.10;69.30
19110;DHT22;9687;50.836;12.060;2023-03-23T10:27:02;18.10;69.20
19110;DHT22;9687;50.836;12.060;2023-03-23T10:29:31;18.00;69.00
19110;DHT22;9687;50.836;12.060;2023-03-23T10:32:03;17.90;68.80
19110;DHT22;9687;50.836;12.060;2023-03-23T10:34:35;17.90;69.00
19110;DHT22;9687;50.836;12.060;2023-03-23T10:37:10;17.80;68.90
19110;DHT22;9687;50.836;12.060;2023-03-23T10:39:43;17.70;68.90
19110;DHT22;9687;50.836;12.060;2023-03-23T10:42:23;17.60;69.30
19110;DHT22;9687;50.836;12.060;2023-03-23T10:47:58;17.50;69.70
19110;DHT22;9687;50.836;12.060;2023-03-23T10:50:29;17.40;70.00
19110;DHT22;9687;50.836;12.060;2023-03-23T10:52:59;17.40;70.10
19110;DHT22;9687;50.836;12.060;2023-03-23T10:55:36;17.40;70.50
19110;DHT22;9687;50.836;12.060;2023-03-23T10:58:23;17.30;71.60
19110;DHT22;9687;50.836;12.060;2023-03-23T11:00:51;17.30;71.20
19110;DHT22;9687;50.836;12.060;2023-03-23T11:03:23;17.30;71.60
19110;DHT22;9687;50.836;12.060;2023-03-23T11:06:02;17.20;71.80
19110;DHT22;9687;50.836;12.060;2023-03-23T11:11:51;17.10;72.50
19110;DHT22;9687;50.836;12.060;2023-03-23T11:14:24;17.00;72.90
19110;DHT22;9687;50.836;12.060;2023-03-23T11:16:53;17.00;72.90
19110;DHT22;9687;50.836;12.060;2023-03-23T11:19:22;17.00;73.30
19110;DHT22;9687;50.836;12.060;2023-03-23T11:21:50;17.00;73.40
19110;DHT22;9687;50.836;12.060;2023-03-23T11:24:25;17.00;73.50
19110;DHT22;9687;50.836;12.060;2023-03-23T11:26:53;17.10;73.80
19110;DHT22;9687;50.836;12.060;2023-03-23T11:29:25;17.10;73.70
19110;DHT22;9687;50.836;12.060;2023-03-23T11:32:02;17.10;73.90
19110;DHT22;9687;50.836;12.060;2023-03-23T11:37:47;17.10;73.60
19110;DHT22;9687;50.836;12.060;2023-03-23T11:43:44;17.10;73.80
19110;DHT22;9687;50.836;12.060;2023-03-23T11:46:16;17.10;73.70
19110;DHT22;9687;50.836;12.060;2023-03-23T11:48:48;17.20;73.70
19110;DHT22;9687;50.836;12.060;2023-03-23T11:51:19;17.10;73.60
19110;DHT22;9687;50.836;12.060;2023-03-23T11:53:50;17.10;73.60
19110;DHT22;9687;50.836;12.060;2023-03-23T11:56:23;17.20;73.70
19110;DHT22;9687;50.836;12.060;2023-03-23T12:19:48;17.20;72.20
19110;DHT22;9687;50.836;12.060;2023-03-23T12:22:24;17.20;71.70
19110;DHT22;9687;50.836;12.060;2023-03-23T12:24:59;17.20;71.60
19110;DHT22;9687;50.836;12.060;2023-03-23T12:41:54;17.10;70.10
19110;DHT22;9687;50.836;12.060;2023-03-23T12:44:27;17.20;70.30
19110;DHT22;9687;50.836;12.060;2023-03-23T12:47:02;17.20;70.00
19110;DHT22;9687;50.836;12.060;2023-03-23T12:49:34;17.20;69.50
19110;DHT22;9687;50.836;12.060;2023-03-23T12:52:06;17.30;69.60
19110;DHT22;9687;50.836;12.060;2023-03-23T12:54:38;17.30;69.20
19110;DHT22;9687;50.836;12.060;2023-03-23T12:57:08;17.40;69.20
19110;DHT22;9687;50.836;12.060;2023-03-23T12:59:41;17.40;69.00
19110;DHT22;9687;50.836;12.060;2023-03-23T13:02:13;17.50;68.60
19110;DHT22;9687;50.836;12.060;2023-03-23T13:04:43;17.40;67.90
19110;DHT22;9687;50.836;12.060;2023-03-23T13:07:14;17.50;67.90
19110;DHT22;9687;50.836;12.060;2023-03-23T13:09:45;17.50;67.60
19110;DHT22;9687;50.836;12.060;2023-03-23T13:12:16;17.60;67.60
19110;DHT22;9687;50.836;12.060;2023-03-23T13:14:50;17.60;67.50
19110;DHT22;9687;50.836;12.060;2023-03-23T13:17:22;17.60;67.70
19110;DHT22;9687;50.836;12.060;2023-03-23T13:22:39;17.70;68.00
19110;DHT22;9687;50.836;12.060;2023-03-23T13:25:13;17.80;68.20
19110;DHT22;9687;50.836;12.060;2023-03-23T13:27:43;17.90;67.90
19110;DHT22;9687;50.836;12.060;2023-03-23T13:30:21;17.90;67.80
19110;DHT22;9687;50.836;12.060;2023-03-23T13:32:50;18.10;67.90
19110;DHT22;9687;50.836;12.060;2023-03-23T13:35:19;18.10;67.40
19110;DHT22;9687;50.836;12.060;2023-03-23T13:37:48;18.20;67.00
19110;DHT22;9687;50.836;12.060;2023-03-23T13:40:18;18.20;67.00
19110;DHT22;9687;50.836;12.060;2023-03-23T13:42:50;18.30;67.20
19110;DHT22;9687;50.836;12.060;2023-03-23T13:45:20;18.40;67.30
19110;DHT22;9687;50.836;12.060;2023-03-23T13:47:48;18.40;67.30
19110;DHT22;9687;50.836;12.060;2023-03-23T13:50:27;18.40;67.30
19110;DHT22;9687;50.836;12.060;2023-03-23T13:52:58;18.50;67.20
19110;DHT22;9687;50.836;12.060;2023-03-23T13:55:40;18.50;67.30
19110;DHT22;9687;50.836;12.060;2023-03-23T13:58:21;18.50;67.20
19110;DHT22;9687;50.836;12.060;2023-03-23T14:01:00;18.50;66.80
19110;DHT22;9687;50.836;12.060;2023-03-23T14:03:33;18.40;66.60
19110;DHT22;9687;50.836;12.060;2023-03-23T14:06:02;18.40;66.60
19110;DHT22;9687;50.836;12.060;2023-03-23T14:08:38;18.30;66.60
19110;DHT22;9687;50.836;12.060;2023-03-23T14:11:12;18.30;66.50
19110;DHT22;9687;50.836;12.060;2023-03-23T14:13:46;18.30;66.70
19110;DHT22;9687;50.836;12.060;2023-03-23T14:16:17;18.30;66.80
19110;DHT22;9687;50.836;12.060;2023-03-23T14:18:49;18.30;66.80
19110;DHT22;9687;50.836;12.060;2023-03-23T14:21:21;18.20;66.60
19110;DHT22;9687;50.836;12.060;2023-03-23T14:23:49;18.20;66.70
19110;DHT22;9687;50.836;12.060;2023-03-23T14:26:18;18.20;66.70
19110;DHT22;9687;50.836;12.060;2023-03-23T14:28:51;18.10;66.60
19110;DHT22;9687;50.836;12.060;2023-03-23T14:31:20;18.00;66.30
19110;DHT22;9687;50.836;12.060;2023-03-23T14:33:48;18.00;66.80
19110;DHT22;9687;50.836;12.060;2023-03-23T14:36:19;17.90;66.70
19110;DHT22;9687;50.836;12.060;2023-03-23T14:38:47;17.80;67.10
19110;DHT22;9687;50.836;12.060;2023-03-23T14:41:16;17.80;67.50
19110;DHT22;9687;50.836;12.060;2023-03-23T14:43:44;17.70;67.80
19110;DHT22;9687;50.836;12.060;2023-03-23T14:46:13;17.60;68.10
19110;DHT22;9687;50.836;12.060;2023-03-23T14:48:42;17.60;68.20
19110;DHT22;9687;50.836;12.060;2023-03-23T14:51:16;17.60;68.40
19110;DHT22;9687;50.836;12.060;2023-03-23T14:53:45;17.50;68.80
19110;DHT22;9687;50.836;12.060;2023-03-23T14:59:42;17.50;69.50
19110;DHT22;9687;50.836;12.060;2023-03-23T15:02:15;17.40;69.70
19110;DHT22;9687;50.836;12.060;2023-03-23T15:04:45;17.40;69.90
19110;DHT22;9687;50.836;12.060;2023-03-23T15:07:16;17.30;70.10
19110;DHT22;9687;50.836;12.060;2023-03-23T15:09:58;17.30;70.00
19110;DHT22;9687;50.836;12.060;2023-03-23T15:12:27;17.30;70.30
19110;DHT22;9687;50.836;12.060;2023-03-23T15:14:57;17.20;70.30
19110;DHT22;9687;50.836;12.060;2023-03-23T15:17:28;17.20;70.30
19110;DHT22;9687;50.836;12.060;2023-03-23T15:19:56;17.20;70.70
19110;DHT22;9687;50.836;12.060;2023-03-23T15:22:25;17.20;70.60
19110;DHT22;9687;50.836;12.060;2023-03-23T15:25:01;17.20;70.70
19110;DHT22;9687;50.836;12.060;2023-03-23T15:27:44;17.10;70.60
19110;DHT22;9687;50.836;12.060;2023-03-23T15:30:26;17.20;70.90
19110;DHT22;9687;50.836;12.060;2023-03-23T15:33:00;17.10;71.00
19110;DHT22;9687;50.836;12.060;2023-03-23T15:35:32;17.10;70.90
19110;DHT22;9687;50.836;12.060;2023-03-23T15:38:02;17.10;71.00
19110;DHT22;9687;50.836;12.060;2023-03-23T15:40:32;17.10;71.10
19110;DHT22;9687;50.836;12.060;2023-03-23T15:43:07;17.10;71.20
19110;DHT22;9687;50.836;12.060;2023-03-23T15:45:35;17.10;71.40
19110;DHT22;9687;50.836;12.060;2023-03-23T15:48:12;17.10;71.40
19110;DHT22;9687;50.836;12.060;2023-03-23T15:50:40;17.10;71.60
19110;DHT22;9687;50.836;12.060;2023-03-23T15:53:17;17.00;71.60
19110;DHT22;9687;50.836;12.060;2023-03-23T15:55:47;17.10;71.70
19110;DHT22;9687;50.836;12.060;2023-03-23T15:58:15;17.00;71.60
19110;DHT22;9687;50.836;12.060;2023-03-23T16:00:44;17.00;71.70
19110;DHT22;9687;50.836;12.060;2023-03-23T16:03:16;17.00;71.90
19110;DHT22;9687;50.836;12.060;2023-03-23T16:05:45;17.00;71.80
19110;DHT22;9687;50.836;12.060;2023-03-23T16:08:15;17.00;72.00
19110;DHT22;9687;50.836;12.060;2023-03-23T16:10:44;17.00;72.00
19110;DHT22;9687;50.836;12.060;2023-03-23T16:13:14;17.00;72.10
19110;DHT22;9687;50.836;12.060;2023-03-23T16:15:45;17.00;72.10
19110;DHT22;9687;50.836;12.060;2023-03-23T16:18:17;17.00;72.30
19110;DHT22;9687;50.836;12.060;2023-03-23T16:20:49;16.90;72.40
19110;DHT22;9687;50.836;12.060;2023-03-23T16:23:18;17.00;72.50
19110;DHT22;9687;50.836;12.060;2023-03-23T16:25:48;16.90;72.40
19110;DHT22;9687;50.836;12.060;2023-03-23T16:28:18;16.90;72.50
19110;DHT22;9687;50.836;12.060;2023-03-23T16:30:47;16.90;72.60
19110;DHT22;9687;50.836;12.060;2023-03-23T16:33:18;16.90;72.60
19110;DHT22;9687;50.836;12.060;2023-03-23T16:35:47;16.90;72.90
19110;DHT22;9687;50.836;12.060;2023-03-23T16:38:16;16.90;73.00
19110;DHT22;9687;50.836;12.060;2023-03-23T16:40:45;16.90;73.20
19110;DHT22;9687;50.836;12.060;2023-03-23T16:43:14;16.90;73.10
19110;DHT22;9687;50.836;12.060;2023-03-23T16:45:43;16.80;73.20
19110;DHT22;9687;50.836;12.060;2023-03-23T16:48:13;16.90;73.30
19110;DHT22;9687;50.836;12.060;2023-03-23T16:50:45;16.80;73.20
19110;DHT22;9687;50.836;12.060;2023-03-23T16:53:14;16.90;73.30
19110;DHT22;9687;50.836;12.060;2023-03-23T16:55:46;16.90;73.30